Greenville, ME

4:10 AM EST on December 09, 2016 (GMT -0500)
Beaver Cove Camps | | Change Station

Elev 1030 ft 45.56 °N, 69.57 °W | Updated 24 seconds ago

Mostly Cloudy
Mostly Cloudy
25.3 °F
Feels Like 18 °F
N
6.0
Wind Variable Wind from WNW
Gusts 10.0 mph

Today
High -- | Low -- °F
--% Chance of Precip.
Yesterday
High -- | Low -- °F
Precip. -- in
Pressure 29.65 in
Visibility 10.0 miles
Clouds Clear
Windchill 18 °F
Dew Point 23 °F
Humidity 92%
Rainfall 0.00 in
Snow Depth Not available.
7:06 AM 3:55 PM
Waxing Gibbous, 72% visible
METAR KMLT 090853Z AUTO 27006KT 10SM CLR M04/M08 A2962 RMK AO2 SLP041 T10391083 53004
Pressure 29.65 in
Visibility 10.0 miles
Clouds Clear
Windchill 18 °F
Dew Point 23 °F
Humidity 92%
Rainfall 0.00 in
Snow Depth Not available.
7:06 AM 3:55 PM
Waxing Gibbous, 72% visible
METAR KMLT 090853Z AUTO 27006KT 10SM CLR M04/M08 A2962 RMK AO2 SLP041 T10391083 53004

10-Day Weather Forecast

Almanac

Astronomy

Dec. 09, 2016 Rise Set
Actual Time
Civil Twilight
Nautical Twilight
Astronomical Twilight
Moon
Length of Visible Light
Length of Day
Tomorrow will be .
, % of the Moon is Illuminated

Today's Extremes

State Highs State Lows

Community

WunderPhotos

Upload Photos

1,956,371 photos uploaded!

WunderBlog® & News

Nearby

Air Quality

  Air Quality AQ Index Pollutant
Not available.

Snow Depth

Station Depth Elevation

Earthquake Activity

City Distance Mag. Time & Date
Minimum magnitude displayed is 2.5.

Coastal Water Temperatures

Place Temperature

Stations

Nearby Weather Stations

Station Location Temp. Windchill Dew Point Humidity Wind Precip. Elev Updated Type
                   

Watches & Warnings

There are currently no watches in effect.